Lyons, CO

10:46 AM MDT on April 26, 2015 (GMT -0600)
Fort Collins-Loveland Municipal | | Change Station
CLOSE
Current Station
Airport
Location: Fort Collins,
Elevation: 5016 ft
Nearby Weather Stations

Elev 5016 ft 40.45 °N, 105.01 °W | Updated 31 minutes ago

Rain
Rain
45 °F
Feels Like 39 °F
N
12
Wind Variable Wind from ESE

Today
High -- | Low -- °F
--% Chance of Precip.
Yesterday
High -- | Low -- °F
Precip. -- in
6:07 AM 7:50 PM
First Quarter, 57% visible
Pressure 29.91 in
Visibility 10.0 miles
Clouds Mostly Cloudy 900 ft
Overcast 1500 ft
Windchill 39 °F
Dew Point 41 °F
Humidity 87%
Rainfall 0.22 in
Snow Depth Not available.
UV 2 out of 12
Pollen 3.10 out of 12
Air Quality Not available.
Flu Activity Sporadic
METAR KFNL 261615Z AUTO 11010KT 10SM BKN009 OVC015 07/05 A2991 RMK AO1 P0001

More Conditions Fewer Conditions

Pressure 29.91 in
Visibility 10.0 miles
Clouds Mostly Cloudy 900 ft
Overcast 1500 ft
Windchill 39 °F
Dew Point 41 °F
Humidity 87%
Rainfall 0.22 in
Snow Depth Not available.
UV 2 out of 12
Pollen 3.10 out of 12
Air Quality Not available.
Flu Activity Sporadic
METAR KFNL 261615Z AUTO 11010KT 10SM BKN009 OVC015 07/05 A2991 RMK AO1 P0001

More Conditions Fewer Conditions

The full scope of the disaster following a powerful 7.8-magnitude earthquake in Nepal may not come into view for days, but global charities are already sending emergency aid. Click to see how you can help.
Nowcast | as of 10:07 am MDT on April 26, 2015

Rain will continue across the Front Range I-25 urban corridor through the noon hour...but will gradually diminish in intensity over the southeast part of the Denver Metro area into eastern Adams and Arapahoe counties. Rainfall rates will average around a tenth of an inch per hour...although up to two tenths of an inch per hour can be expected from the heaviest showers moving into the far northwest suburbs of Denver and Boulder.

×

10-Day Weather Forecast

Almanac

Astronomy

Apr. 26, 2015 Rise Set
Actual Time
Civil Twilight
Nautical Twilight
Astronomical Twilight
Moon
Length of Visible Light
Length of Day
Tomorrow will be .
, % of the Moon is Illuminated

Today's Extremes

State Highs State Lows

Community

WunderPhotos

Upload Photos

1,817,054 photos uploaded!

WunderBlogs® & News

Nearby

Air Quality

  Air Quality AQ Index Pollutant
Not available.

Snow Depth

Station Depth Elevation

Earthquake Activity

City Distance Mag. Time & Date
Minimum magnitude displayed is 2.5.

Coastal Water Temperatures

Place Temperature

Stations

Nearby Weather Stations

Station Location Temp. Windchill Dew Point Humidity Wind Precip. Elev Updated Type